sensor_id;sensor_type;location;lat;lon;timestamp;P1;durP1;ratioP1;P2;durP2;ratioP2
80508;SDS011;69838;52.602;13.434;2023-06-26T00:00:25;14.23;;;10.63;;
80508;SDS011;69838;52.602;13.434;2023-06-26T00:01:11;12.95;;;10.68;;
80508;SDS011;69838;52.602;13.434;2023-06-26T00:01:56;13.00;;;10.38;;
80508;SDS011;69838;52.602;13.434;2023-06-26T00:02:41;15.18;;;11.15;;
80508;SDS011;69838;52.602;13.434;2023-06-26T00:03:26;13.70;;;10.80;;
80508;SDS011;69838;52.602;13.434;2023-06-26T00:04:13;13.30;;;10.65;;
80508;SDS011;69838;52.602;13.434;2023-06-26T00:04:59;15.23;;;10.90;;
80508;SDS011;69838;52.602;13.434;2023-06-26T00:05:47;13.52;;;9.90;;
80508;SDS011;69838;52.602;13.434;2023-06-26T00:06:32;15.13;;;10.35;;
80508;SDS011;69838;52.602;13.434;2023-06-26T00:07:17;12.68;;;9.95;;
80508;SDS011;69838;52.602;13.434;2023-06-26T00:08:02;12.90;;;10.10;;
80508;SDS011;69838;52.602;13.434;2023-06-26T00:08:48;12.20;;;10.27;;
80508;SDS011;69838;52.602;13.434;2023-06-26T00:09:33;11.90;;;9.55;;
80508;SDS011;69838;52.602;13.434;2023-06-26T00:10:19;12.57;;;10.50;;
80508;SDS011;69838;52.602;13.434;2023-06-26T00:11:04;11.88;;;9.95;;
80508;SDS011;69838;52.602;13.434;2023-06-26T00:11:49;13.15;;;10.38;;
80508;SDS011;69838;52.602;13.434;2023-06-26T00:12:35;12.82;;;9.27;;
80508;SDS011;69838;52.602;13.434;2023-06-26T00:13:20;13.98;;;11.48;;
80508;SDS011;69838;52.602;13.434;2023-06-26T00:14:06;13.50;;;10.30;;
80508;SDS011;69838;52.602;13.434;2023-06-26T00:14:52;11.30;;;9.05;;
80508;SDS011;69838;52.602;13.434;2023-06-26T00:15:37;12.25;;;10.10;;
80508;SDS011;69838;52.602;13.434;2023-06-26T00:16:23;13.02;;;10.25;;
80508;SDS011;69838;52.602;13.434;2023-06-26T00:17:08;12.07;;;9.45;;
80508;SDS011;69838;52.602;13.434;2023-06-26T00:17:53;11.80;;;9.50;;
80508;SDS011;69838;52.602;13.434;2023-06-26T00:18:38;13.07;;;10.73;;
80508;SDS011;69838;52.602;13.434;2023-06-26T00:19:23;12.90;;;10.20;;
80508;SDS011;69838;52.602;13.434;2023-06-26T00:20:09;12.80;;;10.70;;
80508;SDS011;69838;52.602;13.434;2023-06-26T00:20:54;14.05;;;10.70;;
80508;SDS011;69838;52.602;13.434;2023-06-26T00:21:39;12.35;;;10.90;;
80508;SDS011;69838;52.602;13.434;2023-06-26T00:22:25;14.02;;;11.88;;
80508;SDS011;69838;52.602;13.434;2023-06-26T00:23:11;14.15;;;11.65;;
80508;SDS011;69838;52.602;13.434;2023-06-26T00:23:58;13.43;;;11.30;;
80508;SDS011;69838;52.602;13.434;2023-06-26T00:24:43;14.07;;;10.68;;
80508;SDS011;69838;52.602;13.434;2023-06-26T00:25:29;12.98;;;10.63;;
80508;SDS011;69838;52.602;13.434;2023-06-26T00:26:15;12.18;;;9.63;;
80508;SDS011;69838;52.602;13.434;2023-06-26T00:27:00;13.30;;;10.60;;
80508;SDS011;69838;52.602;13.434;2023-06-26T00:27:45;13.93;;;10.45;;
80508;SDS011;69838;52.602;13.434;2023-06-26T00:28:31;13.10;;;9.20;;
80508;SDS011;69838;52.602;13.434;2023-06-26T00:29:16;12.27;;;9.70;;
80508;SDS011;69838;52.602;13.434;2023-06-26T00:30:01;13.02;;;9.70;;
80508;SDS011;69838;52.602;13.434;2023-06-26T00:30:46;12.73;;;9.75;;
80508;SDS011;69838;52.602;13.434;2023-06-26T00:31:32;14.43;;;9.98;;
80508;SDS011;69838;52.602;13.434;2023-06-26T00:32:17;12.35;;;9.23;;
80508;SDS011;69838;52.602;13.434;2023-06-26T00:33:02;12.68;;;9.38;;
80508;SDS011;69838;52.602;13.434;2023-06-26T00:33:47;13.00;;;10.52;;
80508;SDS011;69838;52.602;13.434;2023-06-26T00:34:32;13.02;;;9.93;;
80508;SDS011;69838;52.602;13.434;2023-06-26T00:35:18;13.27;;;10.30;;
80508;SDS011;69838;52.602;13.434;2023-06-26T00:36:03;13.35;;;10.20;;
80508;SDS011;69838;52.602;13.434;2023-06-26T00:36:49;12.82;;;10.13;;
80508;SDS011;69838;52.602;13.434;2023-06-26T00:37:34;13.55;;;10.45;;
80508;SDS011;69838;52.602;13.434;2023-06-26T00:38:19;13.27;;;10.38;;
80508;SDS011;69838;52.602;13.434;2023-06-26T00:39:05;12.98;;;10.15;;
80508;SDS011;69838;52.602;13.434;2023-06-26T00:39:50;12.95;;;10.65;;
80508;SDS011;69838;52.602;13.434;2023-06-26T00:40:35;12.75;;;10.38;;
80508;SDS011;69838;52.602;13.434;2023-06-26T00:41:20;12.65;;;10.48;;
80508;SDS011;69838;52.602;13.434;2023-06-26T00:42:06;14.13;;;10.55;;
80508;SDS011;69838;52.602;13.434;2023-06-26T00:42:51;13.20;;;11.00;;
80508;SDS011;69838;52.602;13.434;2023-06-26T00:43:37;12.85;;;9.95;;
80508;SDS011;69838;52.602;13.434;2023-06-26T00:44:22;12.30;;;9.88;;
80508;SDS011;69838;52.602;13.434;2023-06-26T00:45:07;12.90;;;10.38;;
80508;SDS011;69838;52.602;13.434;2023-06-26T00:45:53;12.20;;;10.95;;
80508;SDS011;69838;52.602;13.434;2023-06-26T00:46:38;11.88;;;10.13;;
80508;SDS011;69838;52.602;13.434;2023-06-26T00:47:23;12.48;;;10.18;;
80508;SDS011;69838;52.602;13.434;2023-06-26T00:48:10;13.25;;;10.38;;
80508;SDS011;69838;52.602;13.434;2023-06-26T00:48:58;12.82;;;10.77;;
80508;SDS011;69838;52.602;13.434;2023-06-26T00:49:44;14.23;;;12.10;;
80508;SDS011;69838;52.602;13.434;2023-06-26T00:50:29;12.45;;;10.90;;
80508;SDS011;69838;52.602;13.434;2023-06-26T00:51:15;12.95;;;10.02;;
80508;SDS011;69838;52.602;13.434;2023-06-26T00:52:00;14.20;;;10.82;;
80508;SDS011;69838;52.602;13.434;2023-06-26T00:52:46;13.27;;;10.77;;
80508;SDS011;69838;52.602;13.434;2023-06-26T00:53:31;13.57;;;10.82;;
80508;SDS011;69838;52.602;13.434;2023-06-26T00:54:17;12.75;;;11.32;;
80508;SDS011;69838;52.602;13.434;2023-06-26T00:55:05;12.20;;;10.18;;
80508;SDS011;69838;52.602;13.434;2023-06-26T00:55:50;13.43;;;10.50;;
80508;SDS011;69838;52.602;13.434;2023-06-26T00:56:36;12.30;;;9.95;;
80508;SDS011;69838;52.602;13.434;2023-06-26T00:57:21;11.05;;;9.27;;
80508;SDS011;69838;52.602;13.434;2023-06-26T00:58:07;12.00;;;9.23;;
80508;SDS011;69838;52.602;13.434;2023-06-26T00:58:52;12.15;;;9.70;;
80508;SDS011;69838;52.602;13.434;2023-06-26T00:59:37;13.13;;;9.70;;
80508;SDS011;69838;52.602;13.434;2023-06-26T01:00:23;12.88;;;10.35;;
80508;SDS011;69838;52.602;13.434;2023-06-26T01:01:08;12.20;;;10.07;;
80508;SDS011;69838;52.602;13.434;2023-06-26T01:01:53;12.38;;;10.20;;
80508;SDS011;69838;52.602;13.434;2023-06-26T01:02:38;13.73;;;9.65;;
80508;SDS011;69838;52.602;13.434;2023-06-26T01:03:24;13.10;;;9.93;;
80508;SDS011;69838;52.602;13.434;2023-06-26T01:04:10;12.57;;;9.57;;
80508;SDS011;69838;52.602;13.434;2023-06-26T01:05:02;11.70;;;9.68;;
80508;SDS011;69838;52.602;13.434;2023-06-26T01:05:52;11.80;;;9.50;;
80508;SDS011;69838;52.602;13.434;2023-06-26T01:06:39;12.80;;;9.75;;
80508;SDS011;69838;52.602;13.434;2023-06-26T01:07:24;13.07;;;9.73;;
80508;SDS011;69838;52.602;13.434;2023-06-26T01:08:09;10.68;;;8.82;;
80508;SDS011;69838;52.602;13.434;2023-06-26T01:08:57;12.27;;;9.35;;
80508;SDS011;69838;52.602;13.434;2023-06-26T01:09:44;13.38;;;10.13;;
80508;SDS011;69838;52.602;13.434;2023-06-26T01:10:32;11.68;;;10.43;;
80508;SDS011;69838;52.602;13.434;2023-06-26T01:11:18;12.40;;;10.10;;
80508;SDS011;69838;52.602;13.434;2023-06-26T01:12:04;11.75;;;9.23;;
80508;SDS011;69838;52.602;13.434;2023-06-26T01:12:49;12.27;;;10.35;;
80508;SDS011;69838;52.602;13.434;2023-06-26T01:13:34;12.25;;;9.50;;
80508;SDS011;69838;52.602;13.434;2023-06-26T01:14:21;12.20;;;9.63;;
80508;SDS011;69838;52.602;13.434;2023-06-26T01:15:06;13.48;;;9.45;;
80508;SDS011;69838;52.602;13.434;2023-06-26T01:15:52;12.65;;;9.82;;
80508;SDS011;69838;52.602;13.434;2023-06-26T01:16:38;11.73;;;9.80;;
80508;SDS011;69838;52.602;13.434;2023-06-26T01:17:26;12.07;;;9.93;;
80508;SDS011;69838;52.602;13.434;2023-06-26T01:18:16;13.15;;;10.32;;
80508;SDS011;69838;52.602;13.434;2023-06-26T01:19:01;11.52;;;9.70;;
80508;SDS011;69838;52.602;13.434;2023-06-26T01:19:53;13.82;;;9.82;;
80508;SDS011;69838;52.602;13.434;2023-06-26T01:20:39;12.23;;;9.73;;
80508;SDS011;69838;52.602;13.434;2023-06-26T01:21:26;11.82;;;9.82;;
80508;SDS011;69838;52.602;13.434;2023-06-26T01:22:32;13.15;;;10.50;;
80508;SDS011;69838;52.602;13.434;2023-06-26T01:23:30;12.98;;;10.77;;
80508;SDS011;69838;52.602;13.434;2023-06-26T01:24:21;12.32;;;10.27;;
80508;SDS011;69838;52.602;13.434;2023-06-26T01:25:17;12.77;;;10.60;;
80508;SDS011;69838;52.602;13.434;2023-06-26T01:26:23;12.55;;;9.90;;
80508;SDS011;69838;52.602;13.434;2023-06-26T01:27:12;12.27;;;9.85;;
80508;SDS011;69838;52.602;13.434;2023-06-26T01:27:57;13.10;;;10.57;;
80508;SDS011;69838;52.602;13.434;2023-06-26T01:28:44;12.27;;;9.60;;
80508;SDS011;69838;52.602;13.434;2023-06-26T01:29:30;12.75;;;9.60;;
80508;SDS011;69838;52.602;13.434;2023-06-26T01:30:17;11.63;;;9.50;;
80508;SDS011;69838;52.602;13.434;2023-06-26T01:31:04;12.85;;;9.80;;
80508;SDS011;69838;52.602;13.434;2023-06-26T01:31:50;11.88;;;9.30;;
80508;SDS011;69838;52.602;13.434;2023-06-26T01:32:36;11.63;;;9.35;;
80508;SDS011;69838;52.602;13.434;2023-06-26T01:33:22;11.95;;;9.63;;
80508;SDS011;69838;52.602;13.434;2023-06-26T01:34:07;12.65;;;11.02;;
80508;SDS011;69838;52.602;13.434;2023-06-26T01:34:53;11.88;;;9.63;;
80508;SDS011;69838;52.602;13.434;2023-06-26T01:35:38;13.13;;;9.40;;
80508;SDS011;69838;52.602;13.434;2023-06-26T01:36:24;12.48;;;9.70;;
80508;SDS011;69838;52.602;13.434;2023-06-26T01:37:10;10.82;;;9.60;;
80508;SDS011;69838;52.602;13.434;2023-06-26T01:38:11;12.43;;;9.68;;
80508;SDS011;69838;52.602;13.434;2023-06-26T01:39:05;11.65;;;9.10;;
80508;SDS011;69838;52.602;13.434;2023-06-26T01:39:51;10.73;;;9.07;;
80508;SDS011;69838;52.602;13.434;2023-06-26T01:40:36;11.90;;;8.77;;
80508;SDS011;69838;52.602;13.434;2023-06-26T01:41:21;12.35;;;10.80;;
80508;SDS011;69838;52.602;13.434;2023-06-26T01:42:07;11.07;;;9.40;;
80508;SDS011;69838;52.602;13.434;2023-06-26T01:42:52;12.18;;;9.82;;
80508;SDS011;69838;52.602;13.434;2023-06-26T01:44:00;12.07;;;9.60;;
80508;SDS011;69838;52.602;13.434;2023-06-26T01:44:46;11.95;;;9.55;;
80508;SDS011;69838;52.602;13.434;2023-06-26T01:45:32;12.20;;;10.45;;
80508;SDS011;69838;52.602;13.434;2023-06-26T01:46:36;11.20;;;9.30;;
80508;SDS011;69838;52.602;13.434;2023-06-26T01:47:26;12.13;;;9.27;;
80508;SDS011;69838;52.602;13.434;2023-06-26T01:48:16;13.55;;;9.90;;
80508;SDS011;69838;52.602;13.434;2023-06-26T01:49:20;11.52;;;9.30;;
80508;SDS011;69838;52.602;13.434;2023-06-26T01:50:14;13.23;;;9.95;;
80508;SDS011;69838;52.602;13.434;2023-06-26T01:51:03;10.93;;;8.43;;
80508;SDS011;69838;52.602;13.434;2023-06-26T01:51:52;11.48;;;8.80;;
80508;SDS011;69838;52.602;13.434;2023-06-26T01:52:46;11.63;;;9.30;;
80508;SDS011;69838;52.602;13.434;2023-06-26T01:53:39;11.25;;;9.07;;
80508;SDS011;69838;52.602;13.434;2023-06-26T01:54:29;11.02;;;9.10;;
80508;SDS011;69838;52.602;13.434;2023-06-26T01:55:20;13.70;;;9.65;;
80508;SDS011;69838;52.602;13.434;2023-06-26T01:56:11;14.15;;;9.73;;
80508;SDS011;69838;52.602;13.434;2023-06-26T01:56:58;11.30;;;9.23;;
80508;SDS011;69838;52.602;13.434;2023-06-26T01:57:44;11.60;;;9.90;;
80508;SDS011;69838;52.602;13.434;2023-06-26T01:58:31;12.32;;;9.82;;
80508;SDS011;69838;52.602;13.434;2023-06-26T01:59:17;10.48;;;8.93;;
80508;SDS011;69838;52.602;13.434;2023-06-26T02:00:06;11.38;;;9.10;;
80508;SDS011;69838;52.602;13.434;2023-06-26T02:00:55;11.60;;;9.82;;
80508;SDS011;69838;52.602;13.434;2023-06-26T02:01:40;11.88;;;9.45;;
80508;SDS011;69838;52.602;13.434;2023-06-26T02:02:25;11.25;;;10.15;;
80508;SDS011;69838;52.602;13.434;2023-06-26T02:03:13;13.43;;;9.98;;
80508;SDS011;69838;52.602;13.434;2023-06-26T02:03:58;13.27;;;10.18;;
80508;SDS011;69838;52.602;13.434;2023-06-26T02:04:44;13.05;;;11.07;;
80508;SDS011;69838;52.602;13.434;2023-06-26T02:05:29;13.25;;;10.05;;
80508;SDS011;69838;52.602;13.434;2023-06-26T02:06:15;11.98;;;9.38;;
80508;SDS011;69838;52.602;13.434;2023-06-26T02:07:01;11.25;;;9.25;;
80508;SDS011;69838;52.602;13.434;2023-06-26T02:07:46;13.35;;;10.07;;
80508;SDS011;69838;52.602;13.434;2023-06-26T02:08:31;12.32;;;9.77;;
80508;SDS011;69838;52.602;13.434;2023-06-26T02:09:16;12.95;;;10.02;;
80508;SDS011;69838;52.602;13.434;2023-06-26T02:10:02;12.57;;;10.18;;
80508;SDS011;69838;52.602;13.434;2023-06-26T02:10:48;12.77;;;10.50;;
80508;SDS011;69838;52.602;13.434;2023-06-26T02:11:33;12.20;;;10.35;;
80508;SDS011;69838;52.602;13.434;2023-06-26T02:12:19;13.02;;;10.43;;
80508;SDS011;69838;52.602;13.434;2023-06-26T02:13:04;13.35;;;11.00;;
80508;SDS011;69838;52.602;13.434;2023-06-26T02:13:49;13.68;;;11.20;;
80508;SDS011;69838;52.602;13.434;2023-06-26T02:14:34;14.05;;;12.65;;
80508;SDS011;69838;52.602;13.434;2023-06-26T02:15:20;13.23;;;10.55;;
80508;SDS011;69838;52.602;13.434;2023-06-26T02:16:05;12.05;;;10.30;;
80508;SDS011;69838;52.602;13.434;2023-06-26T02:16:50;12.02;;;9.90;;
80508;SDS011;69838;52.602;13.434;2023-06-26T02:17:35;15.13;;;10.27;;
80508;SDS011;69838;52.602;13.434;2023-06-26T02:18:21;13.48;;;12.07;;
80508;SDS011;69838;52.602;13.434;2023-06-26T02:19:07;12.85;;;10.90;;
80508;SDS011;69838;52.602;13.434;2023-06-26T02:19:52;12.88;;;10.43;;
80508;SDS011;69838;52.602;13.434;2023-06-26T02:20:37;12.20;;;9.48;;
80508;SDS011;69838;52.602;13.434;2023-06-26T02:21:24;12.40;;;9.95;;
80508;SDS011;69838;52.602;13.434;2023-06-26T02:22:09;12.75;;;9.93;;
80508;SDS011;69838;52.602;13.434;2023-06-26T02:22:54;12.40;;;10.35;;
80508;SDS011;69838;52.602;13.434;2023-06-26T02:23:39;12.73;;;10.27;;
80508;SDS011;69838;52.602;13.434;2023-06-26T02:24:25;12.77;;;10.38;;
80508;SDS011;69838;52.602;13.434;2023-06-26T02:25:12;14.85;;;11.95;;
80508;SDS011;69838;52.602;13.434;2023-06-26T02:25:57;13.68;;;10.57;;
80508;SDS011;69838;52.602;13.434;2023-06-26T02:26:42;14.30;;;10.60;;
80508;SDS011;69838;52.602;13.434;2023-06-26T02:27:28;13.38;;;10.27;;
80508;SDS011;69838;52.602;13.434;2023-06-26T02:28:13;12.50;;;10.48;;
80508;SDS011;69838;52.602;13.434;2023-06-26T02:28:58;11.80;;;10.32;;
80508;SDS011;69838;52.602;13.434;2023-06-26T02:29:43;12.52;;;10.15;;
80508;SDS011;69838;52.602;13.434;2023-06-26T02:30:29;13.10;;;10.90;;
80508;SDS011;69838;52.602;13.434;2023-06-26T02:31:14;12.70;;;10.40;;
80508;SDS011;69838;52.602;13.434;2023-06-26T02:31:59;11.57;;;10.27;;
80508;SDS011;69838;52.602;13.434;2023-06-26T02:32:44;12.07;;;9.95;;
80508;SDS011;69838;52.602;13.434;2023-06-26T02:33:30;12.07;;;9.93;;
80508;SDS011;69838;52.602;13.434;2023-06-26T02:34:15;11.27;;;9.32;;
80508;SDS011;69838;52.602;13.434;2023-06-26T02:35:01;12.95;;;10.05;;
80508;SDS011;69838;52.602;13.434;2023-06-26T02:35:46;13.45;;;10.38;;
80508;SDS011;69838;52.602;13.434;2023-06-26T02:36:31;12.18;;;9.85;;
80508;SDS011;69838;52.602;13.434;2023-06-26T02:37:17;13.18;;;10.57;;
80508;SDS011;69838;52.602;13.434;2023-06-26T02:38:03;12.82;;;11.32;;
80508;SDS011;69838;52.602;13.434;2023-06-26T02:38:49;13.57;;;10.95;;
80508;SDS011;69838;52.602;13.434;2023-06-26T02:39:34;16.40;;;10.50;;
80508;SDS011;69838;52.602;13.434;2023-06-26T02:40:19;12.70;;;11.05;;
80508;SDS011;69838;52.602;13.434;2023-06-26T02:41:05;13.32;;;10.45;;
80508;SDS011;69838;52.602;13.434;2023-06-26T02:41:50;12.85;;;10.23;;
80508;SDS011;69838;52.602;13.434;2023-06-26T02:42:35;13.55;;;11.02;;
80508;SDS011;69838;52.602;13.434;2023-06-26T02:43:21;12.25;;;10.43;;
80508;SDS011;69838;52.602;13.434;2023-06-26T02:44:06;13.23;;;10.40;;
80508;SDS011;69838;52.602;13.434;2023-06-26T02:44:51;13.60;;;10.52;;
80508;SDS011;69838;52.602;13.434;2023-06-26T02:45:37;13.23;;;11.02;;
80508;SDS011;69838;52.602;13.434;2023-06-26T02:46:22;13.45;;;10.90;;
80508;SDS011;69838;52.602;13.434;2023-06-26T02:47:07;13.93;;;10.70;;
80508;SDS011;69838;52.602;13.434;2023-06-26T02:47:52;13.52;;;10.55;;
80508;SDS011;69838;52.602;13.434;2023-06-26T02:48:38;13.57;;;10.32;;
80508;SDS011;69838;52.602;13.434;2023-06-26T02:49:23;14.23;;;11.48;;
80508;SDS011;69838;52.602;13.434;2023-06-26T02:50:08;15.95;;;10.90;;
80508;SDS011;69838;52.602;13.434;2023-06-26T02:50:54;12.68;;;11.13;;
80508;SDS011;69838;52.602;13.434;2023-06-26T02:51:39;12.57;;;10.95;;
80508;SDS011;69838;52.602;13.434;2023-06-26T02:52:24;13.40;;;10.73;;
80508;SDS011;69838;52.602;13.434;2023-06-26T02:53:10;13.82;;;11.18;;
80508;SDS011;69838;52.602;13.434;2023-06-26T02:53:55;14.00;;;10.80;;
80508;SDS011;69838;52.602;13.434;2023-06-26T02:54:40;14.25;;;10.63;;
80508;SDS011;69838;52.602;13.434;2023-06-26T02:55:25;12.80;;;10.20;;
80508;SDS011;69838;52.602;13.434;2023-06-26T02:56:12;14.40;;;11.07;;
80508;SDS011;69838;52.602;13.434;2023-06-26T02:56:57;12.57;;;10.02;;
80508;SDS011;69838;52.602;13.434;2023-06-26T02:57:42;13.70;;;11.10;;
80508;SDS011;69838;52.602;13.434;2023-06-26T02:58:27;14.57;;;11.25;;
80508;SDS011;69838;52.602;13.434;2023-06-26T02:59:13;14.00;;;11.20;;
80508;SDS011;69838;52.602;13.434;2023-06-26T02:59:58;12.43;;;10.20;;
80508;SDS011;69838;52.602;13.434;2023-06-26T03:00:44;11.90;;;10.48;;
80508;SDS011;69838;52.602;13.434;2023-06-26T03:01:29;14.48;;;12.98;;
80508;SDS011;69838;52.602;13.434;2023-06-26T03:02:14;13.50;;;10.73;;
80508;SDS011;69838;52.602;13.434;2023-06-26T03:03:00;14.27;;;11.85;;
80508;SDS011;69838;52.602;13.434;2023-06-26T03:03:45;13.77;;;10.77;;
80508;SDS011;69838;52.602;13.434;2023-06-26T03:04:32;16.75;;;11.48;;
80508;SDS011;69838;52.602;13.434;2023-06-26T03:05:21;15.07;;;12.82;;
80508;SDS011;69838;52.602;13.434;2023-06-26T03:06:08;14.07;;;12.35;;
80508;SDS011;69838;52.602;13.434;2023-06-26T03:06:54;14.35;;;10.80;;
80508;SDS011;69838;52.602;13.434;2023-06-26T03:07:39;15.85;;;10.75;;
80508;SDS011;69838;52.602;13.434;2023-06-26T03:08:24;14.27;;;11.25;;
80508;SDS011;69838;52.602;13.434;2023-06-26T03:09:10;14.38;;;12.60;;
80508;SDS011;69838;52.602;13.434;2023-06-26T03:09:55;15.10;;;11.68;;
80508;SDS011;69838;52.602;13.434;2023-06-26T03:10:40;14.82;;;12.20;;
80508;SDS011;69838;52.602;13.434;2023-06-26T03:11:26;14.63;;;12.07;;
80508;SDS011;69838;52.602;13.434;2023-06-26T03:12:11;14.55;;;11.00;;
80508;SDS011;69838;52.602;13.434;2023-06-26T03:12:56;13.90;;;11.73;;
80508;SDS011;69838;52.602;13.434;2023-06-26T03:13:41;15.27;;;13.63;;
80508;SDS011;69838;52.602;13.434;2023-06-26T03:14:27;13.10;;;11.30;;
80508;SDS011;69838;52.602;13.434;2023-06-26T03:15:12;14.57;;;11.77;;
80508;SDS011;69838;52.602;13.434;2023-06-26T03:15:58;14.50;;;11.88;;
80508;SDS011;69838;52.602;13.434;2023-06-26T03:16:43;15.13;;;11.25;;
80508;SDS011;69838;52.602;13.434;2023-06-26T03:17:28;15.80;;;11.85;;
80508;SDS011;69838;52.602;13.434;2023-06-26T03:18:14;14.07;;;11.05;;
80508;SDS011;69838;52.602;13.434;2023-06-26T03:18:59;13.88;;;11.70;;
80508;SDS011;69838;52.602;13.434;2023-06-26T03:19:44;13.38;;;11.15;;
80508;SDS011;69838;52.602;13.434;2023-06-26T03:20:29;15.15;;;12.68;;
80508;SDS011;69838;52.602;13.434;2023-06-26T03:21:15;13.27;;;11.23;;
80508;SDS011;69838;52.602;13.434;2023-06-26T03:22:00;13.15;;;10.73;;
80508;SDS011;69838;52.602;13.434;2023-06-26T03:22:45;14.25;;;11.77;;
80508;SDS011;69838;52.602;13.434;2023-06-26T03:23:31;14.80;;;11.60;;
80508;SDS011;69838;52.602;13.434;2023-06-26T03:24:16;13.98;;;11.60;;
80508;SDS011;69838;52.602;13.434;2023-06-26T03:25:02;14.50;;;11.98;;
80508;SDS011;69838;52.602;13.434;2023-06-26T03:25:47;15.70;;;11.60;;
80508;SDS011;69838;52.602;13.434;2023-06-26T03:26:33;14.65;;;11.50;;
80508;SDS011;69838;52.602;13.434;2023-06-26T03:27:19;14.43;;;11.18;;
80508;SDS011;69838;52.602;13.434;2023-06-26T03:28:04;14.43;;;11.70;;
80508;SDS011;69838;52.602;13.434;2023-06-26T03:28:49;15.05;;;12.82;;
80508;SDS011;69838;52.602;13.434;2023-06-26T03:29:34;15.75;;;12.75;;
80508;SDS011;69838;52.602;13.434;2023-06-26T03:30:20;14.77;;;12.15;;
80508;SDS011;69838;52.602;13.434;2023-06-26T03:31:05;16.13;;;13.82;;
80508;SDS011;69838;52.602;13.434;2023-06-26T03:31:50;18.13;;;13.88;;
80508;SDS011;69838;52.602;13.434;2023-06-26T03:32:36;16.15;;;12.73;;
80508;SDS011;69838;52.602;13.434;2023-06-26T03:33:21;15.25;;;12.88;;
80508;SDS011;69838;52.602;13.434;2023-06-26T03:34:06;15.88;;;13.23;;
80508;SDS011;69838;52.602;13.434;2023-06-26T03:34:52;15.13;;;12.45;;
80508;SDS011;69838;52.602;13.434;2023-06-26T03:35:38;17.83;;;12.77;;
80508;SDS011;69838;52.602;13.434;2023-06-26T03:36:23;14.55;;;12.02;;
80508;SDS011;69838;52.602;13.434;2023-06-26T03:37:08;16.30;;;12.57;;
80508;SDS011;69838;52.602;13.434;2023-06-26T03:37:53;14.55;;;11.77;;
80508;SDS011;69838;52.602;13.434;2023-06-26T03:38:39;14.98;;;12.75;;
80508;SDS011;69838;52.602;13.434;2023-06-26T03:39:24;17.20;;;13.98;;
80508;SDS011;69838;52.602;13.434;2023-06-26T03:40:10;15.60;;;12.65;;
80508;SDS011;69838;52.602;13.434;2023-06-26T03:40:55;15.98;;;12.68;;
80508;SDS011;69838;52.602;13.434;2023-06-26T03:41:40;14.63;;;12.20;;
80508;SDS011;69838;52.602;13.434;2023-06-26T03:42:25;16.25;;;13.95;;
80508;SDS011;69838;52.602;13.434;2023-06-26T03:43:11;16.55;;;13.80;;
80508;SDS011;69838;52.602;13.434;2023-06-26T03:43:56;15.35;;;13.48;;
80508;SDS011;69838;52.602;13.434;2023-06-26T03:44:41;15.90;;;13.65;;
80508;SDS011;69838;52.602;13.434;2023-06-26T03:45:26;15.57;;;13.10;;
80508;SDS011;69838;52.602;13.434;2023-06-26T03:46:12;16.38;;;12.65;;
80508;SDS011;69838;52.602;13.434;2023-06-26T03:46:57;16.75;;;12.95;;
80508;SDS011;69838;52.602;13.434;2023-06-26T03:47:42;15.48;;;12.90;;
80508;SDS011;69838;52.602;13.434;2023-06-26T03:48:27;15.73;;;12.38;;
80508;SDS011;69838;52.602;13.434;2023-06-26T03:49:13;14.27;;;12.25;;
80508;SDS011;69838;52.602;13.434;2023-06-26T03:49:58;15.35;;;12.35;;
80508;SDS011;69838;52.602;13.434;2023-06-26T03:50:44;15.90;;;14.20;;
80508;SDS011;69838;52.602;13.434;2023-06-26T03:51:29;16.38;;;12.88;;
80508;SDS011;69838;52.602;13.434;2023-06-26T03:52:15;18.40;;;13.55;;
80508;SDS011;69838;52.602;13.434;2023-06-26T03:53:00;19.00;;;13.90;;
80508;SDS011;69838;52.602;13.434;2023-06-26T03:53:45;18.88;;;15.55;;
80508;SDS011;69838;52.602;13.434;2023-06-26T03:54:30;16.35;;;13.35;;
80508;SDS011;69838;52.602;13.434;2023-06-26T03:55:18;16.77;;;13.38;;
80508;SDS011;69838;52.602;13.434;2023-06-26T03:56:04;14.68;;;12.98;;
80508;SDS011;69838;52.602;13.434;2023-06-26T03:56:49;15.80;;;13.07;;
80508;SDS011;69838;52.602;13.434;2023-06-26T03:57:34;15.50;;;12.32;;
80508;SDS011;69838;52.602;13.434;2023-06-26T03:58:19;16.85;;;12.98;;
80508;SDS011;69838;52.602;13.434;2023-06-26T03:59:05;17.95;;;13.60;;
80508;SDS011;69838;52.602;13.434;2023-06-26T03:59:50;16.48;;;12.43;;
80508;SDS011;69838;52.602;13.434;2023-06-26T04:00:36;17.98;;;15.98;;
80508;SDS011;69838;52.602;13.434;2023-06-26T04:01:21;17.67;;;13.65;;
80508;SDS011;69838;52.602;13.434;2023-06-26T04:02:07;17.67;;;13.90;;
80508;SDS011;69838;52.602;13.434;2023-06-26T04:02:52;15.23;;;13.63;;
80508;SDS011;69838;52.602;13.434;2023-06-26T04:03:37;15.60;;;12.52;;
80508;SDS011;69838;52.602;13.434;2023-06-26T04:04:22;17.60;;;12.93;;
80508;SDS011;69838;52.602;13.434;2023-06-26T04:05:08;17.02;;;14.40;;
80508;SDS011;69838;52.602;13.434;2023-06-26T04:05:53;13.70;;;12.23;;
80508;SDS011;69838;52.602;13.434;2023-06-26T04:06:38;16.35;;;13.25;;
80508;SDS011;69838;52.602;13.434;2023-06-26T04:07:24;14.75;;;12.90;;
80508;SDS011;69838;52.602;13.434;2023-06-26T04:08:09;14.45;;;12.80;;
80508;SDS011;69838;52.602;13.434;2023-06-26T04:08:55;16.73;;;13.32;;
80508;SDS011;69838;52.602;13.434;2023-06-26T04:09:40;15.85;;;12.52;;
80508;SDS011;69838;52.602;13.434;2023-06-26T04:10:25;15.02;;;12.63;;
80508;SDS011;69838;52.602;13.434;2023-06-26T04:11:10;17.85;;;15.23;;
80508;SDS011;69838;52.602;13.434;2023-06-26T04:11:56;16.80;;;12.07;;
80508;SDS011;69838;52.602;13.434;2023-06-26T04:12:41;15.40;;;12.75;;
80508;SDS011;69838;52.602;13.434;2023-06-26T04:13:26;15.50;;;12.75;;
80508;SDS011;69838;52.602;13.434;2023-06-26T04:14:11;15.65;;;13.48;;
80508;SDS011;69838;52.602;13.434;2023-06-26T04:14:57;15.68;;;12.98;;
80508;SDS011;69838;52.602;13.434;2023-06-26T04:15:43;16.90;;;13.32;;
80508;SDS011;69838;52.602;13.434;2023-06-26T04:16:28;16.67;;;13.93;;
80508;SDS011;69838;52.602;13.434;2023-06-26T04:17:13;16.65;;;13.43;;
80508;SDS011;69838;52.602;13.434;2023-06-26T04:17:58;16.60;;;13.35;;
80508;SDS011;69838;52.602;13.434;2023-06-26T04:18:44;15.48;;;13.25;;
80508;SDS011;69838;52.602;13.434;2023-06-26T04:19:29;14.27;;;12.38;;
80508;SDS011;69838;52.602;13.434;2023-06-26T04:20:15;16.05;;;13.98;;
80508;SDS011;69838;52.602;13.434;2023-06-26T04:21:07;16.80;;;13.55;;
80508;SDS011;69838;52.602;13.434;2023-06-26T04:21:53;16.33;;;14.02;;
80508;SDS011;69838;52.602;13.434;2023-06-26T04:22:38;16.80;;;13.68;;
80508;SDS011;69838;52.602;13.434;2023-06-26T04:23:23;18.98;;;14.25;;
80508;SDS011;69838;52.602;13.434;2023-06-26T04:24:09;17.83;;;13.82;;
80508;SDS011;69838;52.602;13.434;2023-06-26T04:24:54;17.30;;;12.85;;
80508;SDS011;69838;52.602;13.434;2023-06-26T04:25:39;16.33;;;13.93;;
80508;SDS011;69838;52.602;13.434;2023-06-26T04:26:25;17.52;;;13.77;;
80508;SDS011;69838;52.602;13.434;2023-06-26T04:27:10;18.70;;;14.52;;
80508;SDS011;69838;52.602;13.434;2023-06-26T04:27:55;17.00;;;14.65;;